sensor_id;sensor_type;location;lat;lon;timestamp;P1;durP1;ratioP1;P2;durP2;ratioP2
7919;SDS011;18778;47.610;9.776;2024-01-11T00:00:36;54.90;;;23.17;;
7919;SDS011;18778;47.610;9.776;2024-01-11T00:03:02;76.07;;;24.13;;
7919;SDS011;18778;47.610;9.776;2024-01-11T00:05:28;55.33;;;23.57;;
7919;SDS011;18778;47.610;9.776;2024-01-11T00:07:54;63.90;;;25.80;;
7919;SDS011;18778;47.610;9.776;2024-01-11T00:10:19;51.93;;;22.50;;
7919;SDS011;18778;47.610;9.776;2024-01-11T00:12:45;60.33;;;25.10;;
7919;SDS011;18778;47.610;9.776;2024-01-11T00:15:11;55.67;;;23.40;;
7919;SDS011;18778;47.610;9.776;2024-01-11T00:17:37;58.23;;;25.13;;
7919;SDS011;18778;47.610;9.776;2024-01-11T00:20:03;66.90;;;25.30;;
7919;SDS011;18778;47.610;9.776;2024-01-11T00:22:29;59.60;;;25.80;;
7919;SDS011;18778;47.610;9.776;2024-01-11T00:24:54;62.03;;;25.40;;
7919;SDS011;18778;47.610;9.776;2024-01-11T00:27:20;62.23;;;24.33;;
7919;SDS011;18778;47.610;9.776;2024-01-11T00:29:45;55.47;;;24.07;;
7919;SDS011;18778;47.610;9.776;2024-01-11T00:32:11;59.40;;;23.90;;
7919;SDS011;18778;47.610;9.776;2024-01-11T00:34:37;58.47;;;24.73;;
7919;SDS011;18778;47.610;9.776;2024-01-11T00:37:03;58.43;;;23.57;;
7919;SDS011;18778;47.610;9.776;2024-01-11T00:39:29;66.93;;;25.03;;
7919;SDS011;18778;47.610;9.776;2024-01-11T00:41:55;57.90;;;24.67;;
7919;SDS011;18778;47.610;9.776;2024-01-11T00:44:20;61.67;;;24.63;;
7919;SDS011;18778;47.610;9.776;2024-01-11T00:46:46;61.87;;;26.00;;
7919;SDS011;18778;47.610;9.776;2024-01-11T00:49:12;62.47;;;24.60;;
7919;SDS011;18778;47.610;9.776;2024-01-11T00:51:37;59.97;;;24.00;;
7919;SDS011;18778;47.610;9.776;2024-01-11T00:54:03;56.67;;;25.10;;
7919;SDS011;18778;47.610;9.776;2024-01-11T00:56:28;58.63;;;24.83;;
7919;SDS011;18778;47.610;9.776;2024-01-11T00:58:54;59.83;;;24.50;;
7919;SDS011;18778;47.610;9.776;2024-01-11T01:01:20;75.67;;;25.80;;
7919;SDS011;18778;47.610;9.776;2024-01-11T01:03:45;64.03;;;26.60;;
7919;SDS011;18778;47.610;9.776;2024-01-11T01:06:11;63.60;;;24.60;;
7919;SDS011;18778;47.610;9.776;2024-01-11T01:08:36;58.90;;;24.40;;
7919;SDS011;18778;47.610;9.776;2024-01-11T01:11:02;55.50;;;22.70;;
7919;SDS011;18778;47.610;9.776;2024-01-11T01:13:27;55.40;;;23.50;;
7919;SDS011;18778;47.610;9.776;2024-01-11T01:15:53;63.13;;;23.53;;
7919;SDS011;18778;47.610;9.776;2024-01-11T01:18:19;54.80;;;24.13;;
7919;SDS011;18778;47.610;9.776;2024-01-11T01:20:45;56.33;;;23.40;;
7919;SDS011;18778;47.610;9.776;2024-01-11T01:23:10;59.87;;;25.10;;
7919;SDS011;18778;47.610;9.776;2024-01-11T01:25:36;56.10;;;24.10;;
7919;SDS011;18778;47.610;9.776;2024-01-11T01:28:01;60.07;;;24.10;;
7919;SDS011;18778;47.610;9.776;2024-01-11T01:30:27;55.33;;;23.17;;
7919;SDS011;18778;47.610;9.776;2024-01-11T01:32:53;53.50;;;22.30;;
7919;SDS011;18778;47.610;9.776;2024-01-11T01:35:19;54.07;;;23.80;;
7919;SDS011;18778;47.610;9.776;2024-01-11T01:37:44;48.27;;;21.70;;
7919;SDS011;18778;47.610;9.776;2024-01-11T01:40:13;52.20;;;22.97;;
7919;SDS011;18778;47.610;9.776;2024-01-11T01:42:42;49.20;;;22.13;;
7919;SDS011;18778;47.610;9.776;2024-01-11T01:45:12;48.23;;;22.77;;
7919;SDS011;18778;47.610;9.776;2024-01-11T01:47:41;43.70;;;20.93;;
7919;SDS011;18778;47.610;9.776;2024-01-11T01:50:07;53.10;;;22.33;;
7919;SDS011;18778;47.610;9.776;2024-01-11T01:52:35;51.13;;;22.97;;
7919;SDS011;18778;47.610;9.776;2024-01-11T01:55:02;49.77;;;22.57;;
7919;SDS011;18778;47.610;9.776;2024-01-11T01:57:30;46.53;;;22.33;;
7919;SDS011;18778;47.610;9.776;2024-01-11T01:59:58;48.70;;;21.97;;
7919;SDS011;18778;47.610;9.776;2024-01-11T02:02:24;52.77;;;22.40;;
7919;SDS011;18778;47.610;9.776;2024-01-11T02:04:50;58.57;;;21.33;;
7919;SDS011;18778;47.610;9.776;2024-01-11T02:07:16;57.77;;;22.40;;
7919;SDS011;18778;47.610;9.776;2024-01-11T02:09:43;60.50;;;23.43;;
7919;SDS011;18778;47.610;9.776;2024-01-11T02:12:09;46.63;;;22.30;;
7919;SDS011;18778;47.610;9.776;2024-01-11T02:14:37;49.10;;;21.97;;
7919;SDS011;18778;47.610;9.776;2024-01-11T02:17:03;53.77;;;22.67;;
7919;SDS011;18778;47.610;9.776;2024-01-11T02:19:29;53.03;;;22.23;;
7919;SDS011;18778;47.610;9.776;2024-01-11T02:21:54;53.80;;;22.87;;
7919;SDS011;18778;47.610;9.776;2024-01-11T02:24:25;52.43;;;21.40;;
7919;SDS011;18778;47.610;9.776;2024-01-11T02:27:01;53.70;;;23.00;;
7919;SDS011;18778;47.610;9.776;2024-01-11T02:29:28;55.73;;;23.33;;
7919;SDS011;18778;47.610;9.776;2024-01-11T02:31:57;49.67;;;21.60;;
7919;SDS011;18778;47.610;9.776;2024-01-11T02:34:26;50.00;;;21.83;;
7919;SDS011;18778;47.610;9.776;2024-01-11T02:36:52;47.03;;;21.53;;
7919;SDS011;18778;47.610;9.776;2024-01-11T02:39:19;54.10;;;23.17;;
7919;SDS011;18778;47.610;9.776;2024-01-11T02:41:47;52.47;;;23.67;;
7919;SDS011;18778;47.610;9.776;2024-01-11T02:44:14;49.77;;;21.30;;
7919;SDS011;18778;47.610;9.776;2024-01-11T02:46:40;50.50;;;20.73;;
7919;SDS011;18778;47.610;9.776;2024-01-11T02:49:06;54.57;;;23.33;;
7919;SDS011;18778;47.610;9.776;2024-01-11T02:51:31;52.20;;;23.27;;
7919;SDS011;18778;47.610;9.776;2024-01-11T02:53:57;47.40;;;21.47;;
7919;SDS011;18778;47.610;9.776;2024-01-11T02:56:23;51.80;;;22.60;;
7919;SDS011;18778;47.610;9.776;2024-01-11T02:58:49;54.93;;;22.13;;
7919;SDS011;18778;47.610;9.776;2024-01-11T03:01:15;47.30;;;21.03;;
7919;SDS011;18778;47.610;9.776;2024-01-11T03:03:40;51.50;;;23.43;;
7919;SDS011;18778;47.610;9.776;2024-01-11T03:06:06;53.87;;;22.27;;
7919;SDS011;18778;47.610;9.776;2024-01-11T03:08:33;48.70;;;21.20;;
7919;SDS011;18778;47.610;9.776;2024-01-11T03:10:58;52.50;;;21.97;;
7919;SDS011;18778;47.610;9.776;2024-01-11T03:13:24;49.73;;;22.10;;
7919;SDS011;18778;47.610;9.776;2024-01-11T03:15:50;53.73;;;21.53;;
7919;SDS011;18778;47.610;9.776;2024-01-11T03:18:15;50.93;;;21.13;;
7919;SDS011;18778;47.610;9.776;2024-01-11T03:20:41;51.57;;;22.10;;
7919;SDS011;18778;47.610;9.776;2024-01-11T03:23:06;62.73;;;21.47;;
7919;SDS011;18778;47.610;9.776;2024-01-11T03:25:32;53.23;;;22.17;;
7919;SDS011;18778;47.610;9.776;2024-01-11T03:27:58;50.33;;;21.70;;
7919;SDS011;18778;47.610;9.776;2024-01-11T03:30:26;43.10;;;20.10;;
7919;SDS011;18778;47.610;9.776;2024-01-11T03:32:52;50.37;;;21.27;;
7919;SDS011;18778;47.610;9.776;2024-01-11T03:35:18;51.97;;;20.83;;
7919;SDS011;18778;47.610;9.776;2024-01-11T03:37:44;47.33;;;21.10;;
7919;SDS011;18778;47.610;9.776;2024-01-11T03:40:10;49.63;;;21.50;;
7919;SDS011;18778;47.610;9.776;2024-01-11T03:42:36;53.50;;;20.10;;
7919;SDS011;18778;47.610;9.776;2024-01-11T03:45:01;46.37;;;20.80;;
7919;SDS011;18778;47.610;9.776;2024-01-11T03:47:28;50.67;;;21.73;;
7919;SDS011;18778;47.610;9.776;2024-01-11T03:49:53;51.53;;;20.80;;
7919;SDS011;18778;47.610;9.776;2024-01-11T03:52:19;57.13;;;20.63;;
7919;SDS011;18778;47.610;9.776;2024-01-11T03:54:45;49.10;;;19.97;;
7919;SDS011;18778;47.610;9.776;2024-01-11T03:57:11;50.07;;;21.37;;
7919;SDS011;18778;47.610;9.776;2024-01-11T03:59:36;42.63;;;19.97;;
7919;SDS011;18778;47.610;9.776;2024-01-11T04:02:02;43.93;;;19.87;;
7919;SDS011;18778;47.610;9.776;2024-01-11T04:04:27;73.57;;;20.97;;
7919;SDS011;18778;47.610;9.776;2024-01-11T04:06:53;47.77;;;20.83;;
7919;SDS011;18778;47.610;9.776;2024-01-11T04:09:18;47.77;;;21.97;;
7919;SDS011;18778;47.610;9.776;2024-01-11T04:11:45;47.93;;;21.43;;
7919;SDS011;18778;47.610;9.776;2024-01-11T04:14:11;45.00;;;21.00;;
7919;SDS011;18778;47.610;9.776;2024-01-11T04:16:41;46.97;;;20.87;;
7919;SDS011;18778;47.610;9.776;2024-01-11T04:19:07;49.10;;;21.33;;
7919;SDS011;18778;47.610;9.776;2024-01-11T04:21:33;42.77;;;19.33;;
7919;SDS011;18778;47.610;9.776;2024-01-11T04:23:58;46.83;;;20.60;;
7919;SDS011;18778;47.610;9.776;2024-01-11T04:26:24;45.83;;;20.07;;
7919;SDS011;18778;47.610;9.776;2024-01-11T04:28:51;38.13;;;19.17;;
7919;SDS011;18778;47.610;9.776;2024-01-11T04:31:17;44.63;;;20.13;;
7919;SDS011;18778;47.610;9.776;2024-01-11T04:33:43;48.90;;;21.03;;
7919;SDS011;18778;47.610;9.776;2024-01-11T04:36:09;48.10;;;20.77;;
7919;SDS011;18778;47.610;9.776;2024-01-11T04:38:36;49.53;;;21.33;;
7919;SDS011;18778;47.610;9.776;2024-01-11T04:41:10;40.00;;;20.23;;
7919;SDS011;18778;47.610;9.776;2024-01-11T04:43:40;42.77;;;19.60;;
7919;SDS011;18778;47.610;9.776;2024-01-11T04:48:39;45.57;;;21.37;;
7919;SDS011;18778;47.610;9.776;2024-01-11T04:51:05;45.60;;;21.77;;
7919;SDS011;18778;47.610;9.776;2024-01-11T04:53:31;43.80;;;21.67;;
7919;SDS011;18778;47.610;9.776;2024-01-11T04:55:57;40.83;;;20.03;;
7919;SDS011;18778;47.610;9.776;2024-01-11T04:58:22;42.53;;;20.77;;
7919;SDS011;18778;47.610;9.776;2024-01-11T05:00:48;46.10;;;21.03;;
7919;SDS011;18778;47.610;9.776;2024-01-11T05:03:14;46.67;;;21.77;;
7919;SDS011;18778;47.610;9.776;2024-01-11T05:05:39;47.30;;;21.07;;
7919;SDS011;18778;47.610;9.776;2024-01-11T05:08:05;45.40;;;21.67;;
7919;SDS011;18778;47.610;9.776;2024-01-11T05:10:31;43.53;;;20.97;;
7919;SDS011;18778;47.610;9.776;2024-01-11T05:12:56;41.37;;;21.50;;
7919;SDS011;18778;47.610;9.776;2024-01-11T05:15:22;47.33;;;21.63;;
7919;SDS011;18778;47.610;9.776;2024-01-11T05:17:48;46.17;;;21.47;;
7919;SDS011;18778;47.610;9.776;2024-01-11T05:20:14;49.53;;;21.57;;
7919;SDS011;18778;47.610;9.776;2024-01-11T05:22:40;47.53;;;20.43;;
7919;SDS011;18778;47.610;9.776;2024-01-11T05:25:05;44.07;;;20.20;;
7919;SDS011;18778;47.610;9.776;2024-01-11T05:27:31;47.57;;;20.97;;
7919;SDS011;18778;47.610;9.776;2024-01-11T05:29:56;46.83;;;21.70;;
7919;SDS011;18778;47.610;9.776;2024-01-11T05:32:22;45.40;;;20.73;;
7919;SDS011;18778;47.610;9.776;2024-01-11T05:34:47;45.70;;;20.00;;
7919;SDS011;18778;47.610;9.776;2024-01-11T05:37:13;49.50;;;21.33;;
7919;SDS011;18778;47.610;9.776;2024-01-11T05:39:38;45.87;;;20.90;;
7919;SDS011;18778;47.610;9.776;2024-01-11T05:42:04;50.03;;;22.40;;
7919;SDS011;18778;47.610;9.776;2024-01-11T05:44:31;56.00;;;24.70;;
7919;SDS011;18778;47.610;9.776;2024-01-11T05:46:57;53.80;;;22.37;;
7919;SDS011;18778;47.610;9.776;2024-01-11T05:49:22;51.67;;;22.93;;
7919;SDS011;18778;47.610;9.776;2024-01-11T05:51:48;49.77;;;22.83;;
7919;SDS011;18778;47.610;9.776;2024-01-11T05:54:14;48.43;;;21.60;;
7919;SDS011;18778;47.610;9.776;2024-01-11T05:56:39;51.13;;;21.53;;
7919;SDS011;18778;47.610;9.776;2024-01-11T05:59:05;53.27;;;23.27;;
7919;SDS011;18778;47.610;9.776;2024-01-11T06:01:30;55.10;;;23.57;;
7919;SDS011;18778;47.610;9.776;2024-01-11T06:03:57;59.00;;;22.87;;
7919;SDS011;18778;47.610;9.776;2024-01-11T06:06:22;53.27;;;23.47;;
7919;SDS011;18778;47.610;9.776;2024-01-11T06:08:48;57.73;;;22.37;;
7919;SDS011;18778;47.610;9.776;2024-01-11T06:11:13;54.87;;;23.27;;
7919;SDS011;18778;47.610;9.776;2024-01-11T06:13:40;62.63;;;23.23;;
7919;SDS011;18778;47.610;9.776;2024-01-11T06:16:06;56.10;;;23.53;;
7919;SDS011;18778;47.610;9.776;2024-01-11T06:18:32;55.90;;;22.67;;
7919;SDS011;18778;47.610;9.776;2024-01-11T06:20:58;59.37;;;22.77;;
7919;SDS011;18778;47.610;9.776;2024-01-11T06:23:24;56.67;;;22.60;;
7919;SDS011;18778;47.610;9.776;2024-01-11T06:25:50;67.20;;;22.70;;
7919;SDS011;18778;47.610;9.776;2024-01-11T06:28:16;65.00;;;23.40;;
7919;SDS011;18778;47.610;9.776;2024-01-11T06:30:41;54.00;;;22.73;;
7919;SDS011;18778;47.610;9.776;2024-01-11T06:33:08;61.53;;;22.93;;
7919;SDS011;18778;47.610;9.776;2024-01-11T06:35:34;58.43;;;23.70;;
7919;SDS011;18778;47.610;9.776;2024-01-11T06:37:59;54.27;;;21.57;;
7919;SDS011;18778;47.610;9.776;2024-01-11T06:40:25;55.17;;;21.80;;
7919;SDS011;18778;47.610;9.776;2024-01-11T06:42:51;59.93;;;22.73;;
7919;SDS011;18778;47.610;9.776;2024-01-11T06:45:17;68.13;;;25.10;;
7919;SDS011;18778;47.610;9.776;2024-01-11T06:47:44;58.47;;;23.20;;
7919;SDS011;18778;47.610;9.776;2024-01-11T06:50:14;58.33;;;23.37;;
7919;SDS011;18778;47.610;9.776;2024-01-11T06:52:40;58.33;;;22.90;;
7919;SDS011;18778;47.610;9.776;2024-01-11T06:55:06;54.27;;;22.47;;
7919;SDS011;18778;47.610;9.776;2024-01-11T06:57:35;56.53;;;22.83;;
7919;SDS011;18778;47.610;9.776;2024-01-11T07:00:01;52.67;;;23.03;;
7919;SDS011;18778;47.610;9.776;2024-01-11T07:02:27;56.83;;;22.30;;
7919;SDS011;18778;47.610;9.776;2024-01-11T07:04:53;54.30;;;21.97;;
7919;SDS011;18778;47.610;9.776;2024-01-11T07:07:20;57.90;;;22.10;;
7919;SDS011;18778;47.610;9.776;2024-01-11T07:09:46;59.33;;;23.13;;
7919;SDS011;18778;47.610;9.776;2024-01-11T07:12:12;54.03;;;22.57;;
7919;SDS011;18778;47.610;9.776;2024-01-11T07:14:37;56.33;;;22.20;;
7919;SDS011;18778;47.610;9.776;2024-01-11T07:17:03;51.73;;;21.27;;
7919;SDS011;18778;47.610;9.776;2024-01-11T07:19:29;57.33;;;22.80;;
7919;SDS011;18778;47.610;9.776;2024-01-11T07:21:54;48.43;;;22.00;;
7919;SDS011;18778;47.610;9.776;2024-01-11T07:24:20;52.17;;;22.00;;
7919;SDS011;18778;47.610;9.776;2024-01-11T07:26:45;54.00;;;21.90;;
7919;SDS011;18778;47.610;9.776;2024-01-11T07:29:11;53.57;;;21.07;;
7919;SDS011;18778;47.610;9.776;2024-01-11T07:31:36;52.77;;;21.20;;
7919;SDS011;18778;47.610;9.776;2024-01-11T07:34:02;54.00;;;21.40;;
7919;SDS011;18778;47.610;9.776;2024-01-11T07:36:28;50.80;;;21.77;;
7919;SDS011;18778;47.610;9.776;2024-01-11T07:38:53;47.13;;;19.50;;
7919;SDS011;18778;47.610;9.776;2024-01-11T07:41:20;50.60;;;21.13;;
7919;SDS011;18778;47.610;9.776;2024-01-11T07:43:47;53.13;;;21.17;;
7919;SDS011;18778;47.610;9.776;2024-01-11T07:46:13;49.43;;;20.80;;
7919;SDS011;18778;47.610;9.776;2024-01-11T07:48:38;47.50;;;19.30;;
7919;SDS011;18778;47.610;9.776;2024-01-11T07:51:04;52.00;;;22.03;;
7919;SDS011;18778;47.610;9.776;2024-01-11T07:53:30;54.37;;;20.60;;
7919;SDS011;18778;47.610;9.776;2024-01-11T07:55:57;45.40;;;20.63;;
7919;SDS011;18778;47.610;9.776;2024-01-11T07:58:23;50.53;;;20.33;;
7919;SDS011;18778;47.610;9.776;2024-01-11T08:00:48;55.43;;;20.63;;
7919;SDS011;18778;47.610;9.776;2024-01-11T08:03:14;58.90;;;21.53;;
7919;SDS011;18778;47.610;9.776;2024-01-11T08:05:40;54.13;;;20.67;;
7919;SDS011;18778;47.610;9.776;2024-01-11T08:08:08;51.07;;;20.33;;
7919;SDS011;18778;47.610;9.776;2024-01-11T08:10:33;40.83;;;20.00;;
7919;SDS011;18778;47.610;9.776;2024-01-11T08:12:59;44.77;;;18.97;;
7919;SDS011;18778;47.610;9.776;2024-01-11T08:15:25;47.27;;;20.33;;
7919;SDS011;18778;47.610;9.776;2024-01-11T08:17:50;46.73;;;19.40;;
7919;SDS011;18778;47.610;9.776;2024-01-11T08:20:16;50.53;;;21.00;;
7919;SDS011;18778;47.610;9.776;2024-01-11T08:22:42;49.13;;;21.43;;
7919;SDS011;18778;47.610;9.776;2024-01-11T08:25:12;43.60;;;20.63;;
7919;SDS011;18778;47.610;9.776;2024-01-11T08:27:38;47.07;;;20.13;;
7919;SDS011;18778;47.610;9.776;2024-01-11T08:30:04;43.37;;;20.07;;
7919;SDS011;18778;47.610;9.776;2024-01-11T08:32:30;43.33;;;19.40;;
7919;SDS011;18778;47.610;9.776;2024-01-11T08:34:59;40.03;;;19.30;;
7919;SDS011;18778;47.610;9.776;2024-01-11T08:37:24;39.57;;;18.57;;
7919;SDS011;18778;47.610;9.776;2024-01-11T08:39:50;46.40;;;19.30;;
7919;SDS011;18778;47.610;9.776;2024-01-11T08:42:15;42.67;;;19.23;;
7919;SDS011;18778;47.610;9.776;2024-01-11T08:44:41;46.87;;;20.90;;
7919;SDS011;18778;47.610;9.776;2024-01-11T08:47:08;43.47;;;19.50;;
7919;SDS011;18778;47.610;9.776;2024-01-11T08:49:38;39.10;;;18.47;;
7919;SDS011;18778;47.610;9.776;2024-01-11T08:52:04;41.57;;;19.60;;
7919;SDS011;18778;47.610;9.776;2024-01-11T08:54:30;43.27;;;19.03;;
7919;SDS011;18778;47.610;9.776;2024-01-11T08:56:57;42.70;;;18.37;;
7919;SDS011;18778;47.610;9.776;2024-01-11T08:59:23;37.73;;;18.23;;
7919;SDS011;18778;47.610;9.776;2024-01-11T09:01:51;43.93;;;19.57;;
7919;SDS011;18778;47.610;9.776;2024-01-11T09:04:17;45.70;;;20.83;;
7919;SDS011;18778;47.610;9.776;2024-01-11T09:06:42;41.50;;;17.37;;
7919;SDS011;18778;47.610;9.776;2024-01-11T09:09:08;37.53;;;17.93;;
7919;SDS011;18778;47.610;9.776;2024-01-11T09:11:36;40.73;;;19.87;;
7919;SDS011;18778;47.610;9.776;2024-01-11T09:14:01;38.47;;;19.23;;
7919;SDS011;18778;47.610;9.776;2024-01-11T09:16:29;35.93;;;17.30;;
7919;SDS011;18778;47.610;9.776;2024-01-11T09:18:55;36.50;;;17.43;;
7919;SDS011;18778;47.610;9.776;2024-01-11T09:21:21;30.57;;;15.33;;
7919;SDS011;18778;47.610;9.776;2024-01-11T09:23:47;31.63;;;15.07;;
7919;SDS011;18778;47.610;9.776;2024-01-11T09:26:12;26.33;;;14.20;;
7919;SDS011;18778;47.610;9.776;2024-01-11T09:28:38;30.60;;;15.43;;
7919;SDS011;18778;47.610;9.776;2024-01-11T09:31:03;24.97;;;13.33;;
7919;SDS011;18778;47.610;9.776;2024-01-11T09:33:29;23.47;;;13.10;;
7919;SDS011;18778;47.610;9.776;2024-01-11T09:35:55;24.40;;;12.77;;
7919;SDS011;18778;47.610;9.776;2024-01-11T09:38:23;23.03;;;13.20;;
7919;SDS011;18778;47.610;9.776;2024-01-11T09:40:59;23.37;;;12.27;;
7919;SDS011;18778;47.610;9.776;2024-01-11T09:43:34;23.50;;;13.07;;
7919;SDS011;18778;47.610;9.776;2024-01-11T09:46:03;22.33;;;12.47;;
7919;SDS011;18778;47.610;9.776;2024-01-11T09:48:32;24.10;;;13.13;;
7919;SDS011;18778;47.610;9.776;2024-01-11T09:50:59;24.70;;;13.77;;
7919;SDS011;18778;47.610;9.776;2024-01-11T09:53:28;20.87;;;12.70;;
7919;SDS011;18778;47.610;9.776;2024-01-11T09:55:56;27.07;;;14.27;;
7919;SDS011;18778;47.610;9.776;2024-01-11T09:58:23;21.57;;;13.10;;
7919;SDS011;18778;47.610;9.776;2024-01-11T10:00:50;21.77;;;12.50;;
7919;SDS011;18778;47.610;9.776;2024-01-11T10:03:20;22.73;;;12.47;;
7919;SDS011;18778;47.610;9.776;2024-01-11T10:05:47;21.70;;;12.30;;
7919;SDS011;18778;47.610;9.776;2024-01-11T10:08:16;19.17;;;10.20;;
7919;SDS011;18778;47.610;9.776;2024-01-11T10:10:44;20.70;;;11.30;;
7919;SDS011;18778;47.610;9.776;2024-01-11T10:13:09;21.03;;;11.30;;
7919;SDS011;18778;47.610;9.776;2024-01-11T10:15:36;22.37;;;11.10;;
7919;SDS011;18778;47.610;9.776;2024-01-11T10:18:01;21.00;;;11.23;;
7919;SDS011;18778;47.610;9.776;2024-01-11T10:20:27;23.93;;;13.17;;
7919;SDS011;18778;47.610;9.776;2024-01-11T10:22:55;25.63;;;13.53;;
7919;SDS011;18778;47.610;9.776;2024-01-11T10:25:22;23.20;;;12.87;;
7919;SDS011;18778;47.610;9.776;2024-01-11T10:27:48;20.70;;;11.67;;
7919;SDS011;18778;47.610;9.776;2024-01-11T10:30:15;22.70;;;12.80;;
7919;SDS011;18778;47.610;9.776;2024-01-11T10:32:44;25.53;;;13.13;;
7919;SDS011;18778;47.610;9.776;2024-01-11T10:35:11;26.73;;;13.53;;
7919;SDS011;18778;47.610;9.776;2024-01-11T10:37:37;25.20;;;12.73;;
7919;SDS011;18778;47.610;9.776;2024-01-11T10:40:05;21.63;;;12.27;;
7919;SDS011;18778;47.610;9.776;2024-01-11T10:42:44;23.70;;;12.83;;
7919;SDS011;18778;47.610;9.776;2024-01-11T10:45:15;23.63;;;12.10;;
7919;SDS011;18778;47.610;9.776;2024-01-11T10:48:03;21.30;;;11.00;;
7919;SDS011;18778;47.610;9.776;2024-01-11T10:50:34;21.67;;;12.00;;
7919;SDS011;18778;47.610;9.776;2024-01-11T10:56:08;20.67;;;12.03;;
7919;SDS011;18778;47.610;9.776;2024-01-11T10:58:35;22.07;;;11.93;;
7919;SDS011;18778;47.610;9.776;2024-01-11T11:01:01;21.43;;;12.67;;
7919;SDS011;18778;47.610;9.776;2024-01-11T11:03:29;22.23;;;11.40;;
7919;SDS011;18778;47.610;9.776;2024-01-11T11:05:56;25.77;;;13.50;;
7919;SDS011;18778;47.610;9.776;2024-01-11T11:08:23;22.07;;;12.83;;
7919;SDS011;18778;47.610;9.776;2024-01-11T11:11:01;23.70;;;13.30;;
7919;SDS011;18778;47.610;9.776;2024-01-11T11:13:31;22.30;;;11.90;;
7919;SDS011;18778;47.610;9.776;2024-01-11T11:15:57;21.90;;;11.13;;
7919;SDS011;18778;47.610;9.776;2024-01-11T11:18:23;21.80;;;11.17;;
7919;SDS011;18778;47.610;9.776;2024-01-11T11:20:49;22.37;;;12.13;;
7919;SDS011;18778;47.610;9.776;2024-01-11T11:23:16;22.57;;;11.83;;
7919;SDS011;18778;47.610;9.776;2024-01-11T11:25:45;20.60;;;11.03;;
7919;SDS011;18778;47.610;9.776;2024-01-11T11:28:11;23.47;;;12.13;;
7919;SDS011;18778;47.610;9.776;2024-01-11T11:30:38;21.73;;;11.07;;
7919;SDS011;18778;47.610;9.776;2024-01-11T11:33:24;24.43;;;12.27;;
7919;SDS011;18778;47.610;9.776;2024-01-11T11:35:54;22.67;;;12.87;;
7919;SDS011;18778;47.610;9.776;2024-01-11T11:38:23;22.07;;;11.30;;
7919;SDS011;18778;47.610;9.776;2024-01-11T11:40:51;22.17;;;12.23;;
7919;SDS011;18778;47.610;9.776;2024-01-11T11:43:18;27.57;;;15.03;;
7919;SDS011;18778;47.610;9.776;2024-01-11T11:45:49;29.27;;;15.20;;
7919;SDS011;18778;47.610;9.776;2024-01-11T11:53:33;25.87;;;13.20;;
7919;SDS011;18778;47.610;9.776;2024-01-11T11:55:59;19.57;;;11.33;;
7919;SDS011;18778;47.610;9.776;2024-01-11T11:58:25;23.50;;;12.53;;
7919;SDS011;18778;47.610;9.776;2024-01-11T12:00:52;20.93;;;11.63;;
7919;SDS011;18778;47.610;9.776;2024-01-11T12:03:19;25.93;;;13.13;;
7919;SDS011;18778;47.610;9.776;2024-01-11T12:05:45;21.53;;;12.37;;
7919;SDS011;18778;47.610;9.776;2024-01-11T12:08:10;24.70;;;13.77;;
7919;SDS011;18778;47.610;9.776;2024-01-11T12:10:36;25.23;;;12.93;;
7919;SDS011;18778;47.610;9.776;2024-01-11T12:13:02;24.80;;;12.93;;
7919;SDS011;18778;47.610;9.776;2024-01-11T12:15:27;22.50;;;11.77;;
7919;SDS011;18778;47.610;9.776;2024-01-11T12:17:57;21.33;;;11.73;;
7919;SDS011;18778;47.610;9.776;2024-01-11T12:20:23;24.43;;;12.53;;
7919;SDS011;18778;47.610;9.776;2024-01-11T12:22:49;25.97;;;13.07;;
7919;SDS011;18778;47.610;9.776;2024-01-11T12:25:14;26.97;;;13.63;;
7919;SDS011;18778;47.610;9.776;2024-01-11T12:27:40;26.17;;;14.30;;
7919;SDS011;18778;47.610;9.776;2024-01-11T12:30:07;22.80;;;13.10;;
7919;SDS011;18778;47.610;9.776;2024-01-11T12:32:36;22.43;;;12.90;;
7919;SDS011;18778;47.610;9.776;2024-01-11T12:35:01;22.37;;;12.70;;
7919;SDS011;18778;47.610;9.776;2024-01-11T12:37:29;24.33;;;13.37;;
7919;SDS011;18778;47.610;9.776;2024-01-11T12:39:58;23.63;;;13.27;;
7919;SDS011;18778;47.610;9.776;2024-01-11T12:42:24;26.10;;;12.80;;
7919;SDS011;18778;47.610;9.776;2024-01-11T12:44:53;24.57;;;13.60;;
7919;SDS011;18778;47.610;9.776;2024-01-11T12:47:19;25.80;;;12.77;;
7919;SDS011;18778;47.610;9.776;2024-01-11T12:49:47;20.40;;;12.50;;
7919;SDS011;18778;47.610;9.776;2024-01-11T12:52:19;25.97;;;12.50;;
7919;SDS011;18778;47.610;9.776;2024-01-11T12:54:44;23.87;;;12.23;;
7919;SDS011;18778;47.610;9.776;2024-01-11T12:57:19;29.33;;;13.70;;
7919;SDS011;18778;47.610;9.776;2024-01-11T12:59:46;27.80;;;14.30;;
7919;SDS011;18778;47.610;9.776;2024-01-11T13:02:11;22.97;;;11.97;;
7919;SDS011;18778;47.610;9.776;2024-01-11T13:04:40;27.80;;;14.30;;
7919;SDS011;18778;47.610;9.776;2024-01-11T13:07:07;24.77;;;12.97;;
7919;SDS011;18778;47.610;9.776;2024-01-11T13:09:34;27.07;;;13.73;;
7919;SDS011;18778;47.610;9.776;2024-01-11T13:12:00;24.03;;;12.93;;
7919;SDS011;18778;47.610;9.776;2024-01-11T13:14:25;26.67;;;13.10;;
7919;SDS011;18778;47.610;9.776;2024-01-11T13:16:53;25.57;;;13.40;;
7919;SDS011;18778;47.610;9.776;2024-01-11T13:19:19;25.40;;;13.60;;
7919;SDS011;18778;47.610;9.776;2024-01-11T13:21:45;25.43;;;12.93;;
7919;SDS011;18778;47.610;9.776;2024-01-11T13:24:10;28.07;;;13.80;;
7919;SDS011;18778;47.610;9.776;2024-01-11T13:26:37;23.83;;;12.33;;
7919;SDS011;18778;47.610;9.776;2024-01-11T13:29:04;23.43;;;12.43;;
7919;SDS011;18778;47.610;9.776;2024-01-11T13:31:30;21.97;;;12.53;;
7919;SDS011;18778;47.610;9.776;2024-01-11T13:33:56;24.77;;;13.70;;
7919;SDS011;18778;47.610;9.776;2024-01-11T13:36:22;23.43;;;11.73;;
7919;SDS011;18778;47.610;9.776;2024-01-11T13:38:48;23.73;;;12.70;;
7919;SDS011;18778;47.610;9.776;2024-01-11T13:41:15;24.50;;;12.73;;
7919;SDS011;18778;47.610;9.776;2024-01-11T13:43:42;24.33;;;12.97;;
7919;SDS011;18778;47.610;9.776;2024-01-11T13:46:08;25.20;;;11.90;;
7919;SDS011;18778;47.610;9.776;2024-01-11T13:48:34;21.43;;;12.50;;
7919;SDS011;18778;47.610;9.776;2024-01-11T13:51:00;21.23;;;11.73;;
7919;SDS011;18778;47.610;9.776;2024-01-11T13:53:28;21.40;;;11.60;;
7919;SDS011;18778;47.610;9.776;2024-01-11T13:55:53;18.47;;;11.13;;
7919;SDS011;18778;47.610;9.776;2024-01-11T13:58:20;18.10;;;11.03;;
7919;SDS011;18778;47.610;9.776;2024-01-11T14:00:46;17.73;;;10.40;;
7919;SDS011;18778;47.610;9.776;2024-01-11T14:03:12;31.93;;;15.33;;
7919;SDS011;18778;47.610;9.776;2024-01-11T14:05:37;26.03;;;14.20;;
7919;SDS011;18778;47.610;9.776;2024-01-11T14:08:03;23.93;;;13.17;;
7919;SDS011;18778;47.610;9.776;2024-01-11T14:10:32;27.50;;;15.93;;
7919;SDS011;18778;47.610;9.776;2024-01-11T14:12:58;25.20;;;14.87;;
7919;SDS011;18778;47.610;9.776;2024-01-11T14:15:24;29.67;;;18.30;;
7919;SDS011;18778;47.610;9.776;2024-01-11T14:17:50;29.57;;;17.57;;
7919;SDS011;18778;47.610;9.776;2024-01-11T14:20:16;24.83;;;14.43;;
7919;SDS011;18778;47.610;9.776;2024-01-11T14:22:42;25.43;;;13.07;;
7919;SDS011;18778;47.610;9.776;2024-01-11T14:25:17;20.20;;;11.97;;
7919;SDS011;18778;47.610;9.776;2024-01-11T14:27:44;26.87;;;14.87;;
7919;SDS011;18778;47.610;9.776;2024-01-11T14:30:10;21.67;;;13.53;;
7919;SDS011;18778;47.610;9.776;2024-01-11T14:32:36;21.67;;;11.93;;
7919;SDS011;18778;47.610;9.776;2024-01-11T14:35:02;26.97;;;15.20;;
7919;SDS011;18778;47.610;9.776;2024-01-11T14:37:32;22.30;;;13.07;;
7919;SDS011;18778;47.610;9.776;2024-01-11T14:39:59;21.57;;;13.37;;